createdAt,value
2023-05-05T00:00:26.655Z,91.80
2023-05-05T00:02:53.320Z,91.80
2023-05-05T00:05:19.980Z,92.10
2023-05-05T00:07:48.035Z,92.10
2023-05-05T00:10:14.845Z,92.10
2023-05-05T00:12:42.741Z,92.20
2023-05-05T00:15:09.711Z,92.20
2023-05-05T00:17:37.497Z,92.40
2023-05-05T00:20:04.607Z,92.50
2023-05-05T00:22:32.649Z,92.60
2023-05-05T00:25:03.062Z,92.70
2023-05-05T00:27:30.779Z,92.50
2023-05-05T00:29:59.565Z,92.40
2023-05-05T00:32:26.231Z,92.40
2023-05-05T00:34:53.320Z,92.50
2023-05-05T00:37:20.066Z,92.60
2023-05-05T00:39:46.703Z,92.60
2023-05-05T00:42:13.356Z,92.70
2023-05-05T00:44:41.658Z,92.80
2023-05-05T00:47:09.233Z,93.10
2023-05-05T00:49:36.806Z,92.90
2023-05-05T00:52:06.699Z,92.80
2023-05-05T00:54:34.501Z,92.80
2023-05-05T00:57:04.434Z,93.00
2023-05-05T00:59:33.484Z,93.10
2023-05-05T01:02:01.172Z,93.10
2023-05-05T01:04:29.341Z,93.00
2023-05-05T01:07:43.189Z,93.10
2023-05-05T01:10:22.552Z,93.20
2023-05-05T01:12:58.432Z,93.30
2023-05-05T01:15:48.394Z,93.60
2023-05-05T01:18:41.696Z,93.90
2023-05-05T01:21:24.874Z,93.90
2023-05-05T01:24:42.336Z,93.70
2023-05-05T01:27:33.313Z,94.10
2023-05-05T01:30:24.013Z,93.90
2023-05-05T01:32:53.522Z,94.10
2023-05-05T01:35:29.846Z,94.00
2023-05-05T01:38:02.856Z,94.30
2023-05-05T01:40:33.823Z,94.40
2023-05-05T01:43:03.341Z,94.10
2023-05-05T01:45:35.523Z,94.40
2023-05-05T01:48:02.842Z,94.60
2023-05-05T01:50:30.460Z,94.70
2023-05-05T01:52:57.486Z,94.80
2023-05-05T01:55:26.378Z,95.00
2023-05-05T01:57:54.048Z,94.90
2023-05-05T02:00:22.496Z,95.10
2023-05-05T02:02:51.689Z,95.10
2023-05-05T02:05:19.505Z,95.30
2023-05-05T02:07:49.066Z,95.40
2023-05-05T02:10:16.141Z,95.50
2023-05-05T02:12:48.305Z,95.50
2023-05-05T02:15:16.207Z,95.80
2023-05-05T02:17:44.137Z,95.70
2023-05-05T02:20:15.992Z,95.90
2023-05-05T02:22:42.746Z,96.10
2023-05-05T02:25:09.733Z,95.80
2023-05-05T02:27:40.560Z,96.00
2023-05-05T02:30:09.763Z,96.20
2023-05-05T02:32:44.779Z,96.30
2023-05-05T02:35:17.248Z,96.20
2023-05-05T02:37:55.967Z,96.20
2023-05-05T02:40:26.173Z,96.30
2023-05-05T02:42:53.849Z,96.20
2023-05-05T02:45:22.588Z,96.60
2023-05-05T02:47:49.322Z,96.40
2023-05-05T02:50:16.076Z,96.40
2023-05-05T02:52:43.571Z,96.50
2023-05-05T02:55:10.839Z,96.30
2023-05-05T02:57:52.402Z,96.40
2023-05-05T03:00:34.035Z,96.60
2023-05-05T03:03:31.152Z,96.60
2023-05-05T03:06:20.346Z,96.60
2023-05-05T03:08:57.822Z,96.60
2023-05-05T03:11:31.561Z,96.80
2023-05-05T03:14:18.894Z,96.60
2023-05-05T03:16:47.466Z,97.00
2023-05-05T03:19:17.011Z,96.70
2023-05-05T03:21:44.097Z,96.90
2023-05-05T03:24:20.054Z,97.10
2023-05-05T03:26:48.002Z,97.30
2023-05-05T03:29:15.405Z,97.30
2023-05-05T03:31:42.497Z,97.20
2023-05-05T03:34:09.441Z,97.50
2023-05-05T03:36:37.255Z,97.60
2023-05-05T03:39:05.282Z,97.70
2023-05-05T03:41:32.813Z,97.90
2023-05-05T03:44:00.654Z,97.80
2023-05-05T03:46:28.414Z,97.90
2023-05-05T03:49:03.240Z,97.80
2023-05-05T03:51:33.426Z,98.10
2023-05-05T03:54:03.475Z,98.40
2023-05-05T03:56:32.322Z,98.30
2023-05-05T03:59:00.734Z,98.40
2023-05-05T04:01:27.431Z,98.30
2023-05-05T04:03:54.251Z,98.30
2023-05-05T04:06:20.961Z,98.50
2023-05-05T04:08:47.622Z,98.80
2023-05-05T04:11:14.290Z,98.90
2023-05-05T04:13:40.966Z,99.00
2023-05-05T04:16:07.698Z,98.90
2023-05-05T04:18:34.429Z,99.10
2023-05-05T04:21:01.135Z,99.10
2023-05-05T04:23:27.861Z,99.10
2023-05-05T04:25:54.625Z,99.30
2023-05-05T04:28:22.187Z,99.30
2023-05-05T04:30:50.332Z,99.50
2023-05-05T04:33:18.118Z,99.70
2023-05-05T04:35:44.814Z,99.80
2023-05-05T04:38:11.484Z,99.70
2023-05-05T04:40:41.193Z,99.60
2023-05-05T04:43:07.997Z,99.80
2023-05-05T04:45:34.672Z,99.80
2023-05-05T04:48:01.412Z,99.80
2023-05-05T04:50:28.155Z,99.60
2023-05-05T04:52:54.818Z,99.80
2023-05-05T04:55:21.566Z,99.90
2023-05-05T04:57:48.274Z,99.90
2023-05-05T05:00:16.474Z,99.80
2023-05-05T05:02:43.241Z,99.90
2023-05-05T05:05:12.267Z,99.70
2023-05-05T05:07:41.521Z,99.90
2023-05-05T05:10:08.794Z,99.60
2023-05-05T05:12:35.690Z,99.40
2023-05-05T05:15:02.482Z,99.40
2023-05-05T05:17:29.180Z,99.40
2023-05-05T05:19:56.188Z,99.30
2023-05-05T05:22:22.977Z,99.30
2023-05-05T05:24:49.621Z,99.30
2023-05-05T05:27:16.328Z,99.20
2023-05-05T05:29:42.957Z,99.20
2023-05-05T05:32:09.765Z,99.20
2023-05-05T05:34:37.591Z,99.20
2023-05-05T05:37:04.316Z,99.10
2023-05-05T05:39:32.165Z,98.90
2023-05-05T05:41:58.862Z,98.80
2023-05-05T05:44:26.837Z,98.40
2023-05-05T05:46:53.546Z,98.40
2023-05-05T05:49:20.248Z,98.00
2023-05-05T05:51:46.934Z,97.90
2023-05-05T05:54:13.618Z,97.80
2023-05-05T05:56:40.564Z,97.50
2023-05-05T05:59:07.300Z,97.30
2023-05-05T06:01:34.828Z,97.10
2023-05-05T06:04:01.802Z,96.90
2023-05-05T06:06:29.255Z,96.80
2023-05-05T06:09:14.615Z,97.00
2023-05-05T06:11:41.607Z,96.70
2023-05-05T06:14:08.296Z,96.40
2023-05-05T06:16:38.917Z,96.00
2023-05-05T06:19:05.583Z,95.60
2023-05-05T06:21:33.309Z,95.10
2023-05-05T06:23:59.989Z,94.70
2023-05-05T06:26:27.758Z,94.50
2023-05-05T06:28:54.470Z,94.30
2023-05-05T06:31:21.157Z,94.30
2023-05-05T06:33:47.833Z,94.20
2023-05-05T06:36:14.534Z,94.20
2023-05-05T06:38:41.198Z,94.00
2023-05-05T06:41:07.920Z,94.00
2023-05-05T06:43:34.692Z,93.80
2023-05-05T06:46:01.325Z,93.90
2023-05-05T06:48:28.074Z,93.70
2023-05-05T06:50:56.357Z,93.60
2023-05-05T06:53:23.008Z,93.60
2023-05-05T06:55:51.510Z,93.50
2023-05-05T06:58:20.815Z,93.40
2023-05-05T07:00:51.094Z,93.40
2023-05-05T07:03:18.021Z,93.20
2023-05-05T07:05:44.930Z,93.20
2023-05-05T07:08:11.703Z,93.00
2023-05-05T07:10:38.448Z,92.90
2023-05-05T07:13:06.791Z,92.80
2023-05-05T07:15:33.609Z,92.60
2023-05-05T07:18:00.335Z,92.50
2023-05-05T07:20:27.256Z,92.30
2023-05-05T07:22:54.036Z,92.20
2023-05-05T07:25:21.481Z,92.20
2023-05-05T07:27:48.746Z,92.10
2023-05-05T07:30:18.731Z,92.10
2023-05-05T07:32:47.174Z,92.00
2023-05-05T07:35:15.352Z,92.00
2023-05-05T07:37:43.802Z,92.00
2023-05-05T07:40:12.381Z,92.10
2023-05-05T07:42:40.724Z,92.00
2023-05-05T07:45:11.932Z,91.90
2023-05-05T07:47:43.105Z,91.80
2023-05-05T07:50:19.499Z,91.70
2023-05-05T07:52:56.169Z,91.70
2023-05-05T07:55:30.894Z,91.70
2023-05-05T07:57:57.734Z,91.60
2023-05-05T08:00:25.617Z,91.50
2023-05-05T08:02:52.692Z,91.40
2023-05-05T08:05:19.407Z,91.50
2023-05-05T08:07:46.110Z,91.40
2023-05-05T08:10:12.975Z,91.50
2023-05-05T08:12:39.942Z,91.50
2023-05-05T08:15:07.819Z,91.40
2023-05-05T08:17:49.282Z,91.40
2023-05-05T08:20:16.906Z,91.30
2023-05-05T08:22:43.810Z,91.40
2023-05-05T08:25:11.188Z,91.70
2023-05-05T08:27:39.330Z,92.30
2023-05-05T08:30:06.810Z,92.00
2023-05-05T08:32:33.714Z,91.80
2023-05-05T08:35:04.572Z,92.60
2023-05-05T08:37:31.872Z,92.60
2023-05-05T08:39:58.932Z,91.90
2023-05-05T08:42:36.112Z,91.90
2023-05-05T08:45:07.968Z,91.40
2023-05-05T08:47:37.497Z,91.00
2023-05-05T08:50:04.788Z,90.80
2023-05-05T08:52:42.588Z,90.60
2023-05-05T08:55:23.901Z,90.50
2023-05-05T08:57:54.808Z,90.50
2023-05-05T09:00:22.301Z,90.40
2023-05-05T09:02:49.980Z,90.20
2023-05-05T09:05:17.393Z,90.00
2023-05-05T09:07:44.456Z,89.80
2023-05-05T09:10:12.038Z,89.00
2023-05-05T09:12:39.611Z,88.60
2023-05-05T09:15:08.966Z,88.50
2023-05-05T09:17:36.935Z,88.50
2023-05-05T09:20:11.803Z,87.70
2023-05-05T09:22:43.305Z,86.60
2023-05-05T09:25:14.294Z,86.60
2023-05-05T09:27:47.475Z,86.80
2023-05-05T09:30:24.472Z,86.60
2023-05-05T09:32:53.434Z,86.30
2023-05-05T09:35:22.769Z,86.00
2023-05-05T09:37:52.115Z,86.20
2023-05-05T09:40:20.589Z,86.10
2023-05-05T09:42:47.728Z,85.20
2023-05-05T09:45:17.833Z,85.50
2023-05-05T09:47:48.563Z,85.20
2023-05-05T09:50:16.674Z,84.80
2023-05-05T09:52:53.612Z,84.80
2023-05-05T09:55:20.464Z,84.70
2023-05-05T09:57:47.292Z,84.40
2023-05-05T10:00:14.694Z,83.70
2023-05-05T10:02:41.555Z,83.50
2023-05-05T10:05:16.869Z,83.70
2023-05-05T10:07:45.366Z,83.20
2023-05-05T10:10:14.041Z,82.60
2023-05-05T10:12:41.235Z,81.90
2023-05-05T10:15:09.808Z,81.40
2023-05-05T10:18:02.145Z,80.50
2023-05-05T10:20:35.126Z,82.40
2023-05-05T10:23:05.168Z,80.70
2023-05-05T10:25:49.885Z,79.90
2023-05-05T10:28:26.476Z,79.00
2023-05-05T10:30:57.338Z,78.90
2023-05-05T10:33:32.395Z,78.70
2023-05-05T10:36:02.226Z,78.20
2023-05-05T10:38:32.385Z,78.20
2023-05-05T10:41:02.238Z,78.10
2023-05-05T10:43:30.280Z,78.20
2023-05-05T10:45:58.104Z,77.50
2023-05-05T10:48:51.143Z,78.00
2023-05-05T10:51:40.087Z,76.80
2023-05-05T10:54:23.080Z,76.90
2023-05-05T10:56:53.636Z,77.00
2023-05-05T10:59:39.533Z,77.00
2023-05-05T11:02:28.436Z,77.10
2023-05-05T11:05:13.524Z,77.00
2023-05-05T11:07:41.338Z,77.30
2023-05-05T11:10:10.109Z,76.80
2023-05-05T11:12:52.494Z,76.70
2023-05-05T11:15:28.537Z,76.30
2023-05-05T11:18:03.942Z,76.00
2023-05-05T11:20:35.528Z,75.50
2023-05-05T11:23:02.273Z,75.20
2023-05-05T11:25:34.854Z,74.90
2023-05-05T11:28:11.917Z,74.30
2023-05-05T11:30:58.066Z,73.50
2023-05-05T11:33:25.679Z,73.80
2023-05-05T11:36:07.362Z,72.50
2023-05-05T11:39:01.346Z,71.90
2023-05-05T11:41:30.995Z,71.70
2023-05-05T11:44:20.710Z,71.20
2023-05-05T11:46:53.250Z,70.90
2023-05-05T11:49:29.641Z,70.20
2023-05-05T11:52:04.548Z,70.20
2023-05-05T11:54:32.141Z,70.00
2023-05-05T11:57:00.577Z,69.70
2023-05-05T11:59:27.217Z,69.30
2023-05-05T12:01:54.168Z,68.90
2023-05-05T12:04:20.901Z,68.80
2023-05-05T12:06:47.804Z,68.50
2023-05-05T12:09:20.835Z,68.20
2023-05-05T12:11:54.459Z,67.40
2023-05-05T12:14:21.858Z,66.80
2023-05-05T12:16:55.293Z,66.30
2023-05-05T12:19:22.343Z,66.30
2023-05-05T12:21:49.832Z,66.30
2023-05-05T12:24:18.039Z,66.10
2023-05-05T12:26:44.809Z,65.70
2023-05-05T12:29:11.513Z,65.70
2023-05-05T12:31:41.992Z,65.00
2023-05-05T12:34:10.556Z,64.70
2023-05-05T12:36:38.002Z,64.50
2023-05-05T12:39:05.398Z,63.60
2023-05-05T12:41:33.030Z,62.90
2023-05-05T12:44:04.919Z,62.60
2023-05-05T12:46:44.070Z,62.30
2023-05-05T12:49:10.805Z,62.00
2023-05-05T12:51:38.239Z,61.60
2023-05-05T12:54:11.597Z,61.40
2023-05-05T12:56:43.408Z,60.60
2023-05-05T12:59:11.729Z,60.30
2023-05-05T13:01:49.766Z,59.90
2023-05-05T13:04:16.870Z,59.80
2023-05-05T13:06:45.464Z,59.40
2023-05-05T13:09:29.091Z,59.10
2023-05-05T13:11:56.293Z,58.50
2023-05-05T13:14:23.898Z,58.30
2023-05-05T13:16:50.742Z,58.00
2023-05-05T13:19:17.456Z,57.80
2023-05-05T13:21:44.132Z,57.60
2023-05-05T13:24:21.505Z,57.00
2023-05-05T13:26:55.163Z,57.10
2023-05-05T13:29:22.476Z,57.00
2023-05-05T13:31:51.589Z,57.00
2023-05-05T13:34:18.457Z,56.30
2023-05-05T13:36:46.469Z,56.10
2023-05-05T13:39:13.106Z,56.00
2023-05-05T13:41:41.310Z,55.20
2023-05-05T13:44:08.321Z,54.30
2023-05-05T13:46:36.999Z,54.40
2023-05-05T13:49:05.832Z,53.90
2023-05-05T13:51:33.942Z,53.30
2023-05-05T13:54:00.906Z,53.50
2023-05-05T13:56:28.047Z,53.30
2023-05-05T13:58:54.896Z,53.20
2023-05-05T14:01:21.641Z,53.40
2023-05-05T14:03:48.433Z,53.20
2023-05-05T14:06:15.205Z,52.80
2023-05-05T14:08:41.858Z,52.60
2023-05-05T14:11:08.511Z,52.20
2023-05-05T14:13:35.154Z,52.00
2023-05-05T14:16:01.811Z,52.00
2023-05-05T14:18:28.450Z,52.00
2023-05-05T14:20:55.137Z,51.90
2023-05-05T14:23:21.890Z,51.70
2023-05-05T14:25:49.620Z,51.80
2023-05-05T14:28:17.684Z,51.40
2023-05-05T14:30:44.440Z,51.40
2023-05-05T14:33:11.183Z,51.10
2023-05-05T14:35:37.884Z,51.20
2023-05-05T14:38:04.668Z,51.40
2023-05-05T14:40:31.429Z,51.30
2023-05-05T14:42:58.419Z,51.40
2023-05-05T14:45:26.767Z,51.30
2023-05-05T14:47:53.781Z,51.00
2023-05-05T14:50:20.623Z,51.10
2023-05-05T14:52:47.264Z,51.30
2023-05-05T14:55:13.926Z,50.90
2023-05-05T14:57:40.611Z,50.90
2023-05-05T15:00:07.854Z,50.90
2023-05-05T15:02:34.602Z,51.00
2023-05-05T15:05:01.282Z,51.20
2023-05-05T15:07:27.923Z,51.50
2023-05-05T15:09:55.353Z,51.70
2023-05-05T15:12:22.664Z,52.00
2023-05-05T15:14:49.369Z,52.30
2023-05-05T15:17:17.728Z,52.40
2023-05-05T15:19:44.440Z,52.50
2023-05-05T15:22:12.264Z,52.60
2023-05-05T15:24:41.276Z,52.70
2023-05-05T15:27:08.044Z,52.70
2023-05-05T15:29:34.754Z,52.70
2023-05-05T15:32:01.536Z,52.90
2023-05-05T15:34:28.479Z,52.50
2023-05-05T15:36:55.655Z,52.20
2023-05-05T15:39:22.381Z,52.40
2023-05-05T15:41:49.058Z,52.50
2023-05-05T15:44:17.171Z,52.70
2023-05-05T15:46:43.953Z,53.30
2023-05-05T15:49:10.893Z,52.60
2023-05-05T15:51:38.690Z,52.50
2023-05-05T15:54:05.562Z,52.80
2023-05-05T15:56:32.669Z,54.30
2023-05-05T15:59:02.276Z,54.30
2023-05-05T16:01:29.041Z,53.80
2023-05-05T16:03:55.953Z,54.80
2023-05-05T16:06:23.042Z,54.40
2023-05-05T16:08:49.806Z,54.90
2023-05-05T16:11:16.581Z,55.20
2023-05-05T16:13:44.134Z,55.60
2023-05-05T16:16:11.371Z,56.20
2023-05-05T16:18:39.406Z,56.40
2023-05-05T16:21:06.781Z,56.60
2023-05-05T16:23:35.358Z,56.50
2023-05-05T16:26:02.161Z,56.30
2023-05-05T16:28:30.840Z,56.80
2023-05-05T16:30:59.000Z,56.40
2023-05-05T16:33:25.814Z,57.30
2023-05-05T16:35:52.529Z,58.20
2023-05-05T16:38:19.341Z,56.70
2023-05-05T16:40:46.011Z,56.80
2023-05-05T16:43:12.679Z,56.90
2023-05-05T16:45:39.611Z,57.10
2023-05-05T16:48:08.925Z,57.60
2023-05-05T16:50:35.882Z,58.20
2023-05-05T16:53:02.547Z,58.50
2023-05-05T16:55:29.302Z,58.90
2023-05-05T16:57:55.968Z,58.90
2023-05-05T17:00:22.656Z,59.00
2023-05-05T17:02:50.413Z,59.20
2023-05-05T17:05:18.222Z,59.40
2023-05-05T17:07:46.442Z,59.60
2023-05-05T17:10:14.016Z,59.70
2023-05-05T17:12:41.008Z,60.20
2023-05-05T17:15:08.874Z,60.40
2023-05-05T17:17:35.758Z,60.50
2023-05-05T17:20:02.448Z,60.50
2023-05-05T17:22:29.358Z,60.80
2023-05-05T17:24:56.003Z,60.90
2023-05-05T17:27:22.656Z,61.00
2023-05-05T17:29:51.890Z,61.20
2023-05-05T17:32:18.544Z,61.60
2023-05-05T17:34:45.253Z,61.70
2023-05-05T17:37:12.665Z,61.90
2023-05-05T17:39:40.769Z,62.30
2023-05-05T17:42:07.451Z,62.60
2023-05-05T17:44:35.757Z,63.00
2023-05-05T17:47:04.102Z,63.40
2023-05-05T17:49:33.133Z,64.00
2023-05-05T17:52:00.612Z,64.00
2023-05-05T17:54:27.376Z,65.00
2023-05-05T17:56:54.025Z,64.70
2023-05-05T17:59:23.738Z,65.10
2023-05-05T18:01:50.523Z,65.20
2023-05-05T18:04:18.968Z,65.60
2023-05-05T18:06:45.650Z,66.10
2023-05-05T18:09:12.736Z,66.50
2023-05-05T18:11:39.598Z,66.90
2023-05-05T18:14:06.313Z,66.90
2023-05-05T18:16:33.034Z,67.30
2023-05-05T18:18:59.890Z,67.50
2023-05-05T18:21:26.736Z,67.80
2023-05-05T18:23:55.537Z,68.10
2023-05-05T18:26:24.180Z,68.30
2023-05-05T18:28:51.187Z,68.80
2023-05-05T18:31:17.917Z,68.70
2023-05-05T18:33:46.769Z,69.10
2023-05-05T18:36:14.315Z,69.30
2023-05-05T18:38:41.106Z,69.30
2023-05-05T18:41:07.807Z,69.50
2023-05-05T18:43:34.567Z,69.50
2023-05-05T18:46:01.324Z,69.90
2023-05-05T18:48:28.109Z,69.90
2023-05-05T18:50:54.841Z,70.10
2023-05-05T18:53:21.707Z,70.10
2023-05-05T18:55:49.461Z,70.50
2023-05-05T18:58:17.369Z,70.60
2023-05-05T19:00:44.711Z,70.60
2023-05-05T19:03:13.101Z,70.90
2023-05-05T19:05:39.878Z,71.20
2023-05-05T19:08:06.872Z,71.10
2023-05-05T19:10:37.294Z,71.10
2023-05-05T19:13:14.258Z,71.20
2023-05-05T19:15:45.651Z,71.60
2023-05-05T19:18:17.561Z,71.80
2023-05-05T19:20:44.226Z,71.90
2023-05-05T19:23:10.928Z,71.70
2023-05-05T19:25:37.703Z,71.80
2023-05-05T19:28:04.625Z,71.80
2023-05-05T19:30:31.446Z,72.10
2023-05-05T19:32:58.301Z,72.00
2023-05-05T19:35:25.475Z,72.30
2023-05-05T19:37:52.157Z,72.20
2023-05-05T19:40:19.128Z,72.50
2023-05-05T19:42:45.877Z,72.70
2023-05-05T19:45:12.554Z,72.80
2023-05-05T19:47:39.281Z,73.00
2023-05-05T19:50:06.500Z,74.90
2023-05-05T19:52:33.343Z,75.20
2023-05-05T19:55:00.289Z,76.30
2023-05-05T19:57:35.557Z,76.00
2023-05-05T20:00:03.778Z,76.50
2023-05-05T20:02:36.206Z,76.10
2023-05-05T20:05:07.438Z,75.80
2023-05-05T20:07:37.877Z,75.90
2023-05-05T20:10:10.583Z,75.50
2023-05-05T20:12:39.980Z,75.50
2023-05-05T20:15:08.978Z,75.30
2023-05-05T20:17:35.731Z,75.40
2023-05-05T20:20:02.630Z,75.30
2023-05-05T20:22:29.355Z,75.40
2023-05-05T20:24:56.072Z,75.50
2023-05-05T20:27:23.103Z,75.20
2023-05-05T20:29:49.757Z,75.70
2023-05-05T20:32:16.426Z,75.50
2023-05-05T20:34:47.148Z,75.40
2023-05-05T20:37:15.375Z,75.60
2023-05-05T20:39:42.183Z,75.50
2023-05-05T20:42:10.242Z,75.60
2023-05-05T20:44:39.459Z,75.70
2023-05-05T20:47:10.224Z,75.50
2023-05-05T20:49:38.725Z,75.60
2023-05-05T20:52:08.039Z,75.70
2023-05-05T20:54:35.105Z,75.50
2023-05-05T20:57:02.003Z,75.70
2023-05-05T20:59:29.524Z,76.00
2023-05-05T21:01:57.723Z,76.00
2023-05-05T21:04:24.921Z,76.10
2023-05-05T21:06:51.761Z,76.20
2023-05-05T21:09:18.598Z,76.30
2023-05-05T21:11:45.357Z,76.50
2023-05-05T21:14:14.430Z,76.60
2023-05-05T21:16:41.221Z,76.70
2023-05-05T21:19:08.075Z,76.70
2023-05-05T21:21:34.725Z,76.60
2023-05-05T21:24:04.366Z,76.70
2023-05-05T21:26:35.323Z,76.90
2023-05-05T21:29:02.037Z,77.20
2023-05-05T21:31:28.874Z,77.00
2023-05-05T21:33:55.601Z,76.90
2023-05-05T21:36:23.355Z,77.20
2023-05-05T21:38:50.351Z,77.10
2023-05-05T21:41:17.296Z,77.10
2023-05-05T21:43:43.975Z,77.20
2023-05-05T21:46:10.660Z,77.40
2023-05-05T21:48:37.555Z,77.20
2023-05-05T21:51:04.486Z,77.00
2023-05-05T21:53:31.537Z,77.10
2023-05-05T21:55:58.304Z,77.30
2023-05-05T21:58:25.102Z,78.10
2023-05-05T22:00:54.261Z,78.10
2023-05-05T22:03:24.382Z,77.70
2023-05-05T22:05:51.358Z,77.50
2023-05-05T22:08:19.279Z,77.80
2023-05-05T22:10:45.933Z,78.20
2023-05-05T22:13:12.634Z,78.30
2023-05-05T22:15:46.705Z,78.60
2023-05-05T22:18:14.571Z,78.50
2023-05-05T22:20:41.391Z,78.60
2023-05-05T22:23:08.350Z,78.60
2023-05-05T22:25:35.811Z,79.00
2023-05-05T22:28:02.844Z,78.90
2023-05-05T22:30:29.679Z,79.00
2023-05-05T22:32:56.542Z,80.00
2023-05-05T22:35:23.748Z,80.90
2023-05-05T22:37:50.423Z,81.40
2023-05-05T22:40:17.346Z,81.40
2023-05-05T22:42:49.341Z,81.90
2023-05-05T22:45:16.257Z,81.90
2023-05-05T22:47:43.029Z,81.30
2023-05-05T22:50:10.591Z,82.20
2023-05-05T22:52:37.677Z,82.60
2023-05-05T22:55:04.776Z,83.10
2023-05-05T22:57:31.739Z,83.10
2023-05-05T22:59:58.540Z,85.10
2023-05-05T23:02:25.989Z,86.10
2023-05-05T23:04:52.791Z,86.90
2023-05-05T23:07:19.855Z,87.70
2023-05-05T23:09:48.317Z,88.80
2023-05-05T23:12:16.768Z,88.60
2023-05-05T23:14:43.777Z,90.00
2023-05-05T23:17:14.188Z,88.60
2023-05-05T23:19:49.696Z,90.10
2023-05-05T23:22:17.674Z,90.90
2023-05-05T23:24:44.596Z,91.40
2023-05-05T23:27:20.282Z,92.40
2023-05-05T23:29:50.527Z,93.40
2023-05-05T23:32:20.770Z,94.00
2023-05-05T23:34:48.528Z,94.80
2023-05-05T23:37:15.693Z,95.60
2023-05-05T23:39:42.494Z,96.30
2023-05-05T23:42:09.220Z,97.50
2023-05-05T23:44:36.236Z,98.40
2023-05-05T23:47:03.252Z,99.40
2023-05-05T23:49:29.928Z,99.90
2023-05-05T23:51:56.555Z,99.90
2023-05-05T23:54:23.277Z,99.90
2023-05-05T23:56:50.070Z,99.90
2023-05-05T23:59:16.831Z,99.90
